Data for 07/03/2007

Time Sea-Level Adjusted Pressure Absolute Pressure Temperature Relative Humidity Dew Point   
(mb) (inHg) (mb) (inHg) (C) (F) (%) (C) (F)
00:05 1022 30.18 851 25.13 18.2 64.8 43 5.4 41.8
00:10 1022 30.18 852 25.16 18 64.3 46 6.2 43.2
00:15 1022 30.18 852 25.16 17.8 64 46 6.2 43.1
00:20 1022 30.18 852 25.16 17.8 64 45 5.9 42.7
00:25 1022 30.18 852 25.16 17.9 64.2 43 5.4 41.8
00:30 1023 30.21 852 25.16 18.2 64.7 42 5.2 41.4
00:35 1023 30.21 852 25.16 18.4 65 42 5.2 41.4
00:40 1023 30.21 852 25.16 18.5 65.3 41 5.1 41.1
00:45 1023 30.21 852 25.16 18.6 65.5 40 4.8 40.6
00:50 1023 30.21 852 25.16 18.2 64.7 45 6.3 43.3
00:55 1023 30.21 852 25.16 17.9 64.2 49 7 44.6
01:00 1023 30.21 852 25.16 18.2 64.8 41 5 41
01:05 1023 30.21 852 25.16 18.1 64.7 44 5.8 42.4
01:10 1023 30.21 852 25.16 17.8 64.1 44 5.4 41.8
01:15 1023 30.21 852 25.16 17.8 64 43 5.1 41.1
01:20 1023 30.21 852 25.16 17.6 63.7 43 5 41
01:25 1023 30.21 852 25.16 17.5 63.5 44 5.2 41.4
01:30 1023 30.21 852 25.16 17.3 63.2 45 5.3 41.6
01:35 1023 30.21 852 25.16 17.2 63 44 5 41.1
01:40 1023 30.21 852 25.16 17.1 62.8 46 5.6 42.1
01:45 1023 30.21 852 25.16 16.6 61.9 48 5.8 42.4
01:50 1023 30.21 852 25.16 16.4 61.5 50 6.1 42.9
01:55 1023 30.21 852 25.16 16.2 61.1 50 6 42.7
02:00 1023 30.21 852 25.16 15.9 60.6 53 6.4 43.5
02:05 1023 30.21 852 25.16 15.7 60.2 52 5.9 42.7
02:10 1023 30.21 852 25.16 16 60.8 49 5.4 41.8
02:15 1023 30.21 852 25.16 16.1 61 49 5.4 41.7
02:20 1023 30.21 852 25.16 16.2 61.2 48 5.3 41.5
02:25 1023 30.21 852 25.16 16.2 61.1 48 5.2 41.4
02:30 1023 30.21 852 25.16 16.5 61.6 45 4.5 40.1
02:35 1023 30.21 852 25.16 16.9 62.5 44 4.7 40.5
02:40 1023 30.21 853 25.19 16.8 62.2 45 5 41
02:45 1023 30.21 853 25.19 16.6 61.9 45 4.7 40.4
02:50 1023 30.21 853 25.19 16.9 62.4 44 4.6 40.2
02:55 1023 30.21 853 25.19 17.1 62.7 44 4.7 40.4
03:00 1023 30.21 853 25.19 17.1 62.7 47 5.9 42.6
03:05 1023 30.21 853 25.19 17.1 62.8 45 5.2 41.3
03:10 1023 30.21 853 25.19 16.9 62.3 45 4.8 40.7
03:15 1024 30.24 853 25.19 16.6 61.9 46 4.9 40.9
03:20 1024 30.24 853 25.19 16.2 61.2 49 5.4 41.8
03:25 1024 30.24 853 25.19 15.8 60.4 47 4.7 40.5
03:30 1024 30.24 853 25.19 15.8 60.5 52 6.1 43
03:35 1024 30.24 853 25.19 15.6 60.1 52 5.8 42.4
03:40 1024 30.24 853 25.19 15.2 59.4 50 4.9 40.9
03:45 1024 30.24 853 25.19 15.2 59.3 53 5.8 42.4
03:50 1024 30.24 853 25.19 14.8 58.6 53 5.2 41.4
03:55 1024 30.24 853 25.19 14.8 58.7 53 5.4 41.7
04:00 1024 30.24 853 25.19 14.7 58.4 52 5.1 41.2
04:05 1024 30.24 853 25.19 14.9 58.9 51 5 41
04:10 1024 30.24 853 25.19 15.1 59.2 51 5.1 41.2
04:15 1024 30.24 853 25.19 15.5 59.9 48 4.5 40.1
04:20 1024 30.24 853 25.19 15.7 60.2 48 4.9 40.8
04:25 1024 30.24 853 25.19 16 60.8 46 4.5 40.1
04:30 1024 30.24 853 25.19 15.9 60.7 53 6.4 43.5
04:35 1024 30.24 853 25.19 15.7 60.3 49 5.2 41.4
04:40 1024 30.24 853 25.19 15.5 59.9 51 5.4 41.6
04:45 1024 30.24 853 25.19 15 59 52 5.4 41.7
04:50 1024 30.24 853 25.19 15.1 59.2 52 5.3 41.5
04:55 1024 30.24 853 25.19 15.2 59.4 48 4.4 39.8
05:00 1024 30.24 853 25.19 15.5 59.8 49 4.9 40.7
05:05 1024 30.24 853 25.19 15.5 59.8 51 5.5 41.8
05:10 1024 30.24 853 25.19 15 59 52 5.4 41.7
05:15 1024 30.24 853 25.19 14.5 58 55 5.5 41.9
05:20 1024 30.24 854 25.22 14.1 57.4 55 5.4 41.7
05:25 1024 30.24 854 25.22 14.1 57.4 54 5 40.9
05:30 1025 30.27 854 25.22 14.4 58 53 5 40.9
05:35 1025 30.27 854 25.22 14.7 58.4 53 5.3 41.6
05:40 1025 30.27 854 25.22 14.5 58.1 54 5.3 41.5
05:45 1025 30.27 854 25.22 14.3 57.7 54 5.2 41.4
05:50 1025 30.27 854 25.22 14.5 58 54 5.2 41.4
05:55 1025 30.27 854 25.22 14.5 58.1 53 5.2 41.4
06:00 1025 30.27 854 25.22 14.4 58 54 5.3 41.5
06:05 1025 30.27 854 25.22 14.5 58 55 5.7 42.2
06:10 1025 30.27 854 25.22 14.5 58 54 5.4 41.6
06:15 1025 30.27 854 25.22 14.2 57.6 55 5.5 41.9
06:20 1025 30.27 854 25.22 14 57.3 57 5.7 42.2
06:25 1025 30.27 854 25.22 13.9 57 57 5.7 42.2
06:30 1025 30.27 854 25.22 14.1 57.3 56 5.6 42.1
06:35 1025 30.27 854 25.22 14.3 57.8 55 5.6 42.1
06:40 1025 30.27 854 25.22 14.7 58.4 54 5.7 42.2
06:45 1025 30.27 854 25.22 15 58.9 55 6 42.7
06:50 1025 30.27 854 25.22 15.3 59.5 54 6 42.9
06:55 1025 30.27 854 25.22 15.2 59.4 54 5.9 42.7
07:00 1025 30.27 854 25.22 15.3 59.6 53 6 42.8
07:05 1025 30.27 854 25.22 15.5 59.8 53 5.9 42.6
07:10 1025 30.27 854 25.22 15.5 59.9 53 6.1 42.9
07:15 1025 30.27 854 25.22 15.7 60.3 54 6.5 43.6
07:20 1025 30.27 855 25.25 16.1 61 52 6.3 43.3
07:25 1025 30.27 855 25.25 16.4 61.5 52 6.8 44.2
07:30 1026 30.3 855 25.25 16.6 61.9 52 6.7 44.1
07:35 1026 30.3 855 25.25 16.9 62.3 52 6.9 44.5
07:40 1026 30.3 855 25.25 16.9 62.5 50 6.5 43.7
07:45 1026 30.3 855 25.25 17.2 62.9 50 6.7 44.1
07:50 1026 30.3 855 25.25 17.6 63.7 50 7.1 44.8
07:55 1026 30.3 855 25.25 18.4 65 46 6.8 44.2
08:00 1026 30.3 855 25.25 19.2 66.5 44 6.8 44.2
08:05 1026 30.3 855 25.25 19.8 67.7 44 7.2 45
08:10 1026 30.3 855 25.25 20 68 44 7.6 45.7
08:15 1026 30.3 855 25.25 19.6 67.3 45 7.6 45.6
08:20 1026 30.3 855 25.25 19.9 67.8 43 7.1 44.7
08:25 1026 30.3 855 25.25 20.2 68.4 46 8.4 47.1
08:30 1026 30.3 855 25.25 20.5 68.8 42 7.2 45
08:35 1026 30.3 855 25.25 20.9 69.6 39 6.8 44.2
08:40 1026 30.3 855 25.25 21.2 70.2 39 7 44.6
08:45 1026 30.3 855 25.25 21 69.8 39 6.7 44.1
08:50 1026 30.3 855 25.25 21.5 70.8 36 6.1 42.9
08:55 1026 30.3 855 25.25 21.4 70.6 36 5.9 42.7
09:00 1026 30.3 855 25.25 21.8 71.3 35 5.7 42.3
09:05 1026 30.3 855 25.25 22 71.7 35 6.2 43.2
09:10 1026 30.3 855 25.25 21.8 71.2 38 7.1 44.8
09:15 1026 30.3 855 25.25 21.5 70.6 38 6.8 44.2
09:20 1026 30.3 855 25.25 22.2 71.9 36 6.7 44.1
09:25 1026 30.3 855 25.25 21.8 71.2 35 5.7 42.3
09:30 1026 30.3 855 25.25 22.1 71.8 34 5.9 42.6
09:35 1026 30.3 855 25.25 21.7 71.1 37 6.7 44.1
09:40 1026 30.3 855 25.25 21.8 71.3 35 6 42.9
09:45 1026 30.3 855 25.25 22.7 72.8 34 6.3 43.3
09:50 1026 30.3 855 25.25 22.9 73.2 35 6.6 44
09:55 1026 30.3 855 25.25 22.8 73.1 35 6.8 44.3
10:00 1026 30.3 855 25.25 23.4 74.2 35 7.2 45
10:05 1026 30.3 855 25.25 23.1 73.6 34 6.8 44.2
10:10 1026 30.3 855 25.25 23.4 74.1 35 7.1 44.8
10:15 1026 30.3 855 25.25 23.3 73.9 35 7.3 45.2
10:20 1026 30.3 855 25.25 24 75.2 32 6.6 43.8
10:25 1026 30.3 855 25.25 24.4 75.9 30 5.9 42.7
10:30 1026 30.3 855 25.25 24.6 76.3 29 5.6 42
10:35 1026 30.3 855 25.25 24.8 76.6 29 5.9 42.7
10:40 1026 30.3 855 25.25 24.8 76.6 30 6.1 43
10:45 1026 30.3 855 25.25 24.7 76.5 30 6.2 43.2
10:50 1026 30.3 855 25.25 24.9 76.9 30 6.4 43.5
10:55 1026 30.3 855 25.25 24.9 76.9 29 5.9 42.5
11:00 1026 30.3 855 25.25 24.6 76.3 29 5.4 41.7
11:05 1026 30.3 855 25.25 25.2 77.4 28 5.6 42
11:10 1026 30.3 855 25.25 24.8 76.6 29 5.6 42.1
11:15 1026 30.3 855 25.25 25.3 77.5 28 5.9 42.6
11:20 1026 30.3 855 25.25 25.3 77.6 27 5.5 41.9
11:25 1026 30.3 855 25.25 25.8 78.4 27 5.7 42.2
11:30 1026 30.3 855 25.25 25.6 78.1 28 5.8 42.4
11:35 1026 30.3 855 25.25 25.6 78.1 27 5.7 42.3
11:40 1026 30.3 855 25.25 25.8 78.4 28 5.9 42.6
11:45 1026 30.3 855 25.25 25.9 78.6 29 6.5 43.7
11:50 1026 30.3 855 25.25 26.1 79 27 6 42.7
11:55 1026 30.3 855 25.25 26.5 79.7 26 5.9 42.6
12:00 1026 30.3 855 25.25 26.4 79.4 27 6.1 43
12:05 1026 30.3 855 25.25 26 78.8 27 5.8 42.4
12:10 1026 30.3 855 25.25 25.9 78.7 27 5.6 42
12:15 1026 30.3 855 25.25 26.3 79.3 26 5.7 42.2
12:20 1025 30.27 855 25.25 26.7 80 27 6.4 43.5
12:25 1025 30.27 855 25.25 27 80.5 26 6.3 43.4
12:30 1025 30.27 855 25.25 26.9 80.4 26 6.1 42.9
12:35 1025 30.27 855 25.25 26.9 80.4 26 6.2 43.1
12:40 1025 30.27 855 25.25 25.8 78.5 29 6.5 43.8
12:45 1025 30.27 855 25.25 26.2 79.1 27 6 42.9
12:50 1025 30.27 855 25.25 26.5 79.6 26 5.7 42.3
12:55 1025 30.27 855 25.25 27.1 80.8 25 5.6 42.1
13:00 1025 30.27 854 25.22 27.6 81.6 25 6.1 42.9
13:05 1025 30.27 855 25.25 27.5 81.5 25 5.9 42.7
13:10 1025 30.27 854 25.22 27.1 80.8 26 6.4 43.6
13:15 1025 30.27 854 25.22 27 80.5 25 5.4 41.8
13:20 1025 30.27 854 25.22 27.1 80.7 25 5.5 42
13:25 1025 30.27 854 25.22 27.7 81.8 23 4.8 40.6
13:30 1025 30.27 854 25.22 27.6 81.7 24 5.3 41.6
13:35 1025 30.27 854 25.22 27.4 81.3 24 5.5 41.9
13:40 1025 30.27 854 25.22 27.2 81 24 5.5 41.8
13:45 1025 30.27 854 25.22 27.4 81.3 24 5.2 41.4
13:50 1025 30.27 854 25.22 27.8 82.1 24 6 42.7
13:55 1025 30.27 854 25.22 28.5 83.3 22 4.9 40.9
14:00 1025 30.27 854 25.22 28.2 82.8 24 5.8 42.5
14:05 1025 30.27 854 25.22 27.9 82.1 24 5.8 42.4
14:10 1025 30.27 854 25.22 28.2 82.8 22 5.1 41.2
14:15 1025 30.27 854 25.22 28.3 82.9 26 7.2 44.9
14:20 1025 30.27 854 25.22 28.6 83.4 23 5.5 42
14:25 1025 30.27 854 25.22 28.5 83.2 23 5.4 41.8
14:30 1025 30.27 854 25.22 28.7 83.7 22 5.5 41.9
14:35 1025 30.27 854 25.22 29.3 84.8 21 4.7 40.5
14:40 1025 30.27 854 25.22 29.5 85.1 19 4 39.1
14:45 1025 30.27 854 25.22 29.7 85.4 20 4.6 40.4
14:50 1025 30.27 854 25.22 28.7 83.6 23 5.9 42.7
14:55 1025 30.27 854 25.22 28.4 83.1 20 3.8 38.8
15:00 1025 30.27 854 25.22 29.1 84.4 20 4.3 39.7
15:05 1024 30.24 854 25.22 29.3 84.7 21 5.3 41.6
15:10 1024 30.24 854 25.22 29.4 84.8 21 5.2 41.4
15:15 1024 30.24 854 25.22 29.4 84.9 22 5.9 42.7
15:20 1024 30.24 854 25.22 29.2 84.6 22 5.4 41.7
15:25 1024 30.24 854 25.22 29.4 84.8 21 5 40.9
15:30 1024 30.24 853 25.19 29.2 84.5 23 6.1 43
15:35 1024 30.24 853 25.19 29.3 84.8 22 5.7 42.3
15:40 1024 30.24 853 25.19 29.7 85.4 21 5.3 41.6
15:45 1024 30.24 853 25.19 29.7 85.4 20 5 41
15:50 1024 30.24 853 25.19 29.3 84.7 22 5.6 42
15:55 1024 30.24 853 25.19 28 82.5 24 5.9 42.6
16:00 1024 30.24 853 25.19 27.7 81.8 23 5.1 41.1
16:05 1024 30.24 853 25.19 27.4 81.2 24 5.1 41.2
16:10 1024 30.24 853 25.19 27.7 81.8 23 4.8 40.6
16:15 1024 30.24 853 25.19 28.2 82.7 23 5.5 41.8
16:20 1024 30.24 853 25.19 28.1 82.7 24 5.9 42.6
16:25 1024 30.24 853 25.19 27.8 82 22 4.7 40.5
16:30 1024 30.24 853 25.19 28.3 82.9 23 5.2 41.4
16:35 1024 30.24 853 25.19 28.3 82.9 22 5 40.9
16:40 1024 30.24 853 25.19 28.7 83.6 22 5.2 41.4
16:45 1024 30.24 853 25.19 29.2 84.6 21 4.7 40.4
16:50 1024 30.24 853 25.19 29 84.2 21 4.9 40.9
16:55 1024 30.24 853 25.19 29.4 85 21 5.1 41.1
17:00 1024 30.24 853 25.19 29.6 85.2 20 4.9 40.8
17:05 1024 30.24 853 25.19 28.8 83.8 22 5.5 42
17:10 1024 30.24 853 25.19 28.8 83.8 22 5.4 41.7
17:15 1024 30.24 853 25.19 29.5 85.1 21 5.1 41.2
17:20 1024 30.24 853 25.19 29.3 84.7 22 5.5 41.9
17:25 1024 30.24 853 25.19 29.3 84.7 21 4.7 40.5
17:30 1024 30.24 853 25.19 29.8 85.7 20 5.1 41.3
17:35 1024 30.24 853 25.19 29.8 85.6 21 5.2 41.3
17:40 1024 30.24 853 25.19 29.9 85.9 19 4.4 39.9
17:45 1023 30.21 853 25.19 29.6 85.3 20 4.9 40.9
17:50 1023 30.21 853 25.19 29.7 85.5 21 5.1 41.2
17:55 1023 30.21 853 25.19 30.1 86.1 19 4.6 40.3
18:00 1023 30.21 853 25.19 29.5 85.1 21 4.9 40.8
18:05 1023 30.21 853 25.19 29.5 85 21 5.2 41.4
18:10 1023 30.21 853 25.19 29.7 85.4 20 4.6 40.3
18:15 1023 30.21 853 25.19 29.9 85.8 19 4.1 39.4
18:20 1023 30.21 853 25.19 29.8 85.6 19 3.7 38.6
18:25 1023 30.21 853 25.19 29.2 84.6 20 4.4 40
18:30 1023 30.21 853 25.19 29.3 84.7 19 3.6 38.5
18:35 1023 30.21 853 25.19 29 84.3 20 3.8 38.9
18:40 1023 30.21 853 25.19 28.5 83.3 20 3.9 39
18:45 1023 30.21 853 25.19 28.3 82.9 20 3.7 38.6
18:50 1023 30.21 853 25.19 28.2 82.8 21 4.2 39.5
18:55 1023 30.21 853 25.19 28.2 82.8 21 4.1 39.3
19:00 1023 30.21 853 25.19 28 82.4 20 3.6 38.4
19:05 1023 30.21 853 25.19 28 82.3 21 3.9 39
19:10 1023 30.21 853 25.19 28.2 82.7 20 3.8 38.8
19:15 1023 30.21 853 25.19 28.1 82.6 21 4.1 39.4
19:20 1023 30.21 853 25.19 28 82.4 21 3.8 38.9
19:25 1023 30.21 853 25.19 28 82.5 21 4.1 39.4
19:30 1023 30.21 853 25.19 27.9 82.3 21 4.2 39.5
19:35 1023 30.21 853 25.19 27.6 81.6 22 4.3 39.8
19:40 1023 30.21 853 25.19 27.7 81.8 22 4 39.2
19:45 1024 30.24 853 25.19 27.7 81.9 22 4.1 39.4
19:50 1024 30.24 853 25.19 27.5 81.5 22 3.9 39.1
19:55 1024 30.24 853 25.19 27.4 81.3 21 3.8 38.8
20:00 1024 30.24 853 25.19 27.3 81.2 22 3.9 39.1
20:05 1024 30.24 853 25.19 27.3 81.1 22 4.1 39.4
20:10 1024 30.24 853 25.19 27.2 81 22 4.2 39.6
20:15 1024 30.24 853 25.19 27.2 80.9 22 3.8 38.8
20:20 1024 30.24 853 25.19 27.2 81 21 3.5 38.3
20:25 1024 30.24 853 25.19 27.2 81 22 3.7 38.6
20:30 1024 30.24 853 25.19 27.2 81 21 3.5 38.2
20:35 1024 30.24 853 25.19 27.1 80.8 22 4.2 39.5
20:40 1024 30.24 853 25.19 27.1 80.7 24 4.8 40.7
20:45 1024 30.24 853 25.19 26.7 80.1 30 8 46.4
20:50 1024 30.24 853 25.19 25.9 78.5 34 9.1 48.3
20:55 1024 30.24 853 25.19 25.4 77.7 36 9.5 49.1
21:00 1024 30.24 853 25.19 24.8 76.6 38 9.9 49.7
21:05 1024 30.24 853 25.19 24.2 75.5 39 9.4 48.9
21:10 1024 30.24 853 25.19 23.4 74.1 42 9.9 49.9
21:15 1024 30.24 853 25.19 22.8 73 43 9.9 49.8
21:20 1024 30.24 853 25.19 22.5 72.6 44 9.8 49.7
21:25 1024 30.24 853 25.19 22.2 71.9 41 8.6 47.4
21:30 1024 30.24 853 25.19 21.9 71.5 46 10 50
21:35 1024 30.24 853 25.19 21.9 71.4 45 9.4 49
21:40 1024 30.24 853 25.19 21.4 70.4 45 9 48.2
21:45 1024 30.24 853 25.19 21.4 70.5 41 7.9 46.2
21:50 1024 30.24 853 25.19 21.3 70.3 46 9.2 48.6
21:55 1024 30.24 853 25.19 21.1 70 40 7.1 44.8
22:00 1024 30.24 853 25.19 21.1 70 39 6.9 44.5
22:05 1024 30.24 853 25.19 20.9 69.6 40 7 44.6
22:10 1024 30.24 853 25.19 20.4 68.8 43 7.7 45.9
22:15 1024 30.24 853 25.19 20.2 68.3 46 8.4 47.1
22:20 1024 30.24 853 25.19 19.8 67.7 44 7.3 45.1
22:25 1024 30.24 854 25.22 19.8 67.6 41 6.4 43.5
22:30 1025 30.27 854 25.22 19.8 67.6 42 6.7 44
22:35 1025 30.27 854 25.22 19.9 67.8 43 6.9 44.5
22:40 1025 30.27 854 25.22 20 68.1 39 5.9 42.7
22:45 1025 30.27 854 25.22 20.3 68.5 38 5.7 42.3
22:50 1025 30.27 854 25.22 20.3 68.5 39 5.9 42.7
22:55 1025 30.27 854 25.22 20.1 68.2 42 7 44.6
23:00 1025 30.27 854 25.22 19.8 67.7 45 7.8 46
23:05 1025 30.27 854 25.22 19.2 66.6 47 7.7 45.8
23:10 1025 30.27 854 25.22 19.2 66.6 47 7.8 46.1
23:15 1025 30.27 854 25.22 19.1 66.4 48 8.1 46.6
23:20 1025 30.27 854 25.22 18.7 65.7 48 7.5 45.6
23:25 1025 30.27 854 25.22 18.5 65.3 54 9.1 48.3
23:30 1025 30.27 854 25.22 18.2 64.8 50 7.7 45.9
23:35 1025 30.27 854 25.22 18.1 64.6 52 8.1 46.6
23:40 1025 30.27 854 25.22 18.2 64.8 55 9.2 48.5
23:45 1025 30.27 854 25.22 18.2 64.7 51 7.9 46.2
23:50 1025 30.27 854 25.22 18 64.4 50 7.4 45.3
23:55 1025 30.27 854 25.22 18.3 64.9 51 8.1 46.6
24:00 1025 30.27 854 25.22 18.2 64.8 49 7.6 45.7